Jeffersontown, Kentucky
Current Conditions -  °F | °C
As of 6:53 PM on Thursday 18 Dec 2014 (Local Time) from KLOU Reporting Station
Overcast Overcast  
Wind Chill: 32°   Ceiling: 8000
Heat Index: 32°   Visibility: 9mi
Dew Point: 23°   Wind: 3mph
Humidity: 69%   Direction: 360°N
Pressure: 30.24"   Gusts: NA
Location:  38.19°N, 85.57°W
Report Text: KLOU 182353Z 36003KT 9SM OVC080 00/M05 A3024 RMK AO2 SLP246 T00001050 10006 21006 53003
Loading
Personal Weather Stations






























Interactive Weather Map New forecast layout! Learn more

10-Day Weather Forecast

Advertisements
Track Severe Weather on mobile